createdAt,value
2023-09-08T00:00:02.067Z,101202.09
2023-09-08T00:02:30.964Z,101203.84
2023-09-08T00:04:57.695Z,101193.31
2023-09-08T00:07:24.493Z,101196.13
2023-09-08T00:09:51.214Z,101194.41
2023-09-08T00:12:18.093Z,101194.41
2023-09-08T00:14:45.192Z,101193.56
2023-09-08T00:17:14.227Z,101187.63
2023-09-08T00:19:42.420Z,101181.41
2023-09-08T00:22:09.132Z,101176.13
2023-09-08T00:24:36.544Z,101175.25
2023-09-08T00:27:03.322Z,101180.53
2023-09-08T00:29:29.947Z,101185.72
2023-09-08T00:31:57.690Z,101176.94
2023-09-08T00:34:24.401Z,101184.97
2023-09-08T00:36:52.143Z,101177.16
2023-09-08T00:39:18.731Z,101186.84
2023-09-08T00:41:45.321Z,101183.31
2023-09-08T00:44:12.475Z,101183.34
2023-09-08T00:46:40.674Z,101184.22
2023-09-08T00:49:09.588Z,101182.53
2023-09-08T00:51:38.747Z,101178.09
2023-09-08T00:54:06.424Z,101184.25
2023-09-08T00:56:34.016Z,101173.84
2023-09-08T00:59:00.781Z,101176.34
2023-09-08T01:01:27.393Z,101179.88
2023-09-08T01:03:54.064Z,101174.66
2023-09-08T01:06:20.878Z,101174.59
2023-09-08T01:08:48.008Z,101174.69
2023-09-08T01:11:14.800Z,101171.94
2023-09-08T01:13:41.453Z,101173.69
2023-09-08T01:16:08.927Z,101170.13
2023-09-08T01:18:35.974Z,101170.06
2023-09-08T01:21:29.871Z,101176.16
2023-09-08T01:24:11.638Z,101171.81
2023-09-08T01:26:42.214Z,101175.25
2023-09-08T01:29:10.460Z,101177.88
2023-09-08T01:31:39.120Z,101176.16
2023-09-08T01:34:07.939Z,101177.94
2023-09-08T01:36:37.788Z,101173.56
2023-09-08T01:39:04.582Z,101173.53
2023-09-08T01:41:33.278Z,101172.78
2023-09-08T01:44:01.128Z,101170.19
2023-09-08T01:46:27.735Z,101173.69
2023-09-08T01:48:54.465Z,101175.47
2023-09-08T01:51:21.102Z,101178.19
2023-09-08T01:53:47.815Z,101175.56
2023-09-08T01:56:14.425Z,101172.94
2023-09-08T01:58:41.031Z,101171.31
2023-09-08T02:01:07.720Z,101167.78
2023-09-08T02:03:35.549Z,101168.72
2023-09-08T02:06:02.140Z,101167.06
2023-09-08T02:08:28.842Z,101155.66
2023-09-08T02:10:55.445Z,101159.19
2023-09-08T02:13:23.152Z,101159.22
2023-09-08T02:15:49.942Z,101164.47
2023-09-08T02:18:16.647Z,101161.03
2023-09-08T02:20:43.339Z,101162.72
2023-09-08T02:23:10.110Z,101152.34
2023-09-08T02:25:36.725Z,101162.88
2023-09-08T02:28:03.699Z,101151.56
2023-09-08T02:30:30.340Z,101158.53
2023-09-08T02:32:57.657Z,101154.16
2023-09-08T02:35:25.675Z,101154.16
2023-09-08T02:37:54.296Z,101144.47
2023-09-08T02:40:21.790Z,101145.41
2023-09-08T02:42:49.789Z,101147.13
2023-09-08T02:45:16.742Z,101143.63
2023-09-08T02:47:43.576Z,101149.72
2023-09-08T02:50:11.442Z,101145.34
2023-09-08T02:52:38.144Z,101154.13
2023-09-08T02:55:05.106Z,101149.72
2023-09-08T02:57:31.699Z,101149.78
2023-09-08T02:59:58.370Z,101151.47
2023-09-08T03:02:27.937Z,101153.19
2023-09-08T03:04:55.558Z,101156.72
2023-09-08T03:07:22.302Z,101154.97
2023-09-08T03:09:49.153Z,101157.56
2023-09-08T03:12:16.042Z,101154.94
2023-09-08T03:14:42.716Z,101151.47
2023-09-08T03:17:09.737Z,101155.88
2023-09-08T03:19:36.456Z,101154.97
2023-09-08T03:22:03.355Z,101149.78
2023-09-08T03:24:30.152Z,101153.28
2023-09-08T03:27:00.086Z,101141.00
2023-09-08T03:29:28.994Z,101143.72
2023-09-08T03:31:55.746Z,101140.16
2023-09-08T03:34:23.635Z,101142.88
2023-09-08T03:36:50.553Z,101137.59
2023-09-08T03:39:17.471Z,101136.75
2023-09-08T03:41:44.094Z,101141.22
2023-09-08T03:44:11.298Z,101137.72
2023-09-08T03:46:38.105Z,101135.97
2023-09-08T03:49:05.301Z,101132.47
2023-09-08T03:51:31.969Z,101142.97
2023-09-08T03:53:58.638Z,101137.75
2023-09-08T03:56:25.299Z,101136.09
2023-09-08T03:58:53.112Z,101138.63
2023-09-08T04:01:19.965Z,101143.97
2023-09-08T04:03:47.327Z,101137.00
2023-09-08T04:06:13.962Z,101145.75
2023-09-08T04:08:40.982Z,101139.69
2023-09-08T04:11:07.530Z,101138.81
2023-09-08T04:13:34.421Z,101139.72
2023-09-08T04:16:01.312Z,101145.03
2023-09-08T04:18:29.001Z,101145.06
2023-09-08T04:20:55.922Z,101143.31
2023-09-08T04:23:23.537Z,101144.25
2023-09-08T04:25:50.491Z,101145.16
2023-09-08T04:28:17.142Z,101148.75
2023-09-08T04:30:43.873Z,101152.25
2023-09-08T04:33:10.691Z,101148.75
2023-09-08T04:35:37.753Z,101154.00
2023-09-08T04:38:05.264Z,101149.59
2023-09-08T04:40:31.974Z,101148.72
2023-09-08T04:42:58.634Z,101149.63
2023-09-08T04:45:25.348Z,101150.53
2023-09-08T04:47:52.252Z,101143.66
2023-09-08T04:50:20.332Z,101147.09
2023-09-08T04:52:47.230Z,101143.63
2023-09-08T04:55:14.288Z,101143.59
2023-09-08T04:57:41.133Z,101157.63
2023-09-08T05:00:09.203Z,101154.94
2023-09-08T05:02:35.903Z,101162.81
2023-09-08T05:05:04.136Z,101156.66
2023-09-08T05:07:32.044Z,101152.28
2023-09-08T05:09:59.025Z,101154.91
2023-09-08T05:12:29.716Z,101160.13
2023-09-08T05:15:01.078Z,101156.56
2023-09-08T05:17:28.112Z,101150.41
2023-09-08T05:19:54.789Z,101152.97
2023-09-08T05:22:21.711Z,101155.56
2023-09-08T05:24:48.618Z,101145.88
2023-09-08T05:27:15.353Z,101152.00
2023-09-08T05:29:41.944Z,101150.25
2023-09-08T05:32:08.524Z,101144.09
2023-09-08T05:34:35.413Z,101148.50
2023-09-08T05:37:02.115Z,101149.38
2023-09-08T05:39:28.801Z,101153.75
2023-09-08T05:41:56.071Z,101149.41
2023-09-08T05:44:22.846Z,101156.34
2023-09-08T05:46:49.981Z,101153.66
2023-09-08T05:49:16.668Z,101146.66
2023-09-08T05:51:43.358Z,101155.31
2023-09-08T05:54:10.198Z,101145.59
2023-09-08T05:56:38.456Z,101143.66
2023-09-08T05:59:05.476Z,101141.88
2023-09-08T06:01:33.813Z,101133.09
2023-09-08T06:04:02.205Z,101147.84
2023-09-08T06:06:30.539Z,101140.88
2023-09-08T06:08:58.960Z,101146.06
2023-09-08T06:11:26.923Z,101149.56
2023-09-08T06:13:57.033Z,101141.50
2023-09-08T06:16:24.004Z,101145.75
2023-09-08T06:18:50.649Z,101137.78
2023-09-08T06:21:19.972Z,101137.66
2023-09-08T06:23:46.690Z,101142.97
2023-09-08T06:26:14.242Z,101143.66
2023-09-08T06:28:42.924Z,101140.19
2023-09-08T06:31:09.761Z,101143.50
2023-09-08T06:33:38.105Z,101139.03
2023-09-08T06:36:05.632Z,101139.47
2023-09-08T06:38:32.942Z,101143.72
2023-09-08T06:41:01.944Z,101141.84
2023-09-08T06:43:29.017Z,101153.97
2023-09-08T06:46:03.851Z,101153.78
2023-09-08T06:48:30.690Z,101143.91
2023-09-08T06:50:57.680Z,101149.00
2023-09-08T06:53:25.676Z,101143.72
2023-09-08T06:55:52.546Z,101145.22
2023-09-08T06:58:19.775Z,101140.63
2023-09-08T07:00:46.968Z,101148.47
2023-09-08T07:03:14.293Z,101141.25
2023-09-08T07:05:41.614Z,101138.41
2023-09-08T07:08:08.739Z,101141.63
2023-09-08T07:10:35.421Z,101147.69
2023-09-08T07:13:02.548Z,101143.13
2023-09-08T07:15:29.217Z,101145.53
2023-09-08T07:17:58.404Z,101146.22
2023-09-08T07:20:25.483Z,101149.53
2023-09-08T07:22:52.917Z,101142.28
2023-09-08T07:25:20.600Z,101135.03
2023-09-08T07:27:47.692Z,101141.91
2023-09-08T07:30:21.468Z,101148.59
2023-09-08T07:32:48.182Z,101146.25
2023-09-08T07:35:16.816Z,101143.56
2023-09-08T07:37:45.499Z,101144.34
2023-09-08T07:40:13.620Z,101154.59
2023-09-08T07:42:40.819Z,101142.00
2023-09-08T07:45:10.332Z,101143.38
2023-09-08T07:47:39.509Z,101138.66
2023-09-08T07:50:21.753Z,101146.31
2023-09-08T07:52:53.494Z,101143.75
2023-09-08T07:55:20.335Z,101139.19
2023-09-08T07:57:47.374Z,101141.63
2023-09-08T08:00:17.656Z,101143.91
2023-09-08T08:02:50.704Z,101123.47
2023-09-08T08:05:18.002Z,101135.53
2023-09-08T08:07:45.460Z,101142.91
2023-09-08T08:10:15.103Z,101137.25
2023-09-08T08:12:43.248Z,101143.88
2023-09-08T08:15:11.519Z,101143.41
2023-09-08T08:17:38.842Z,101145.81
2023-09-08T08:20:12.038Z,101145.59
2023-09-08T08:22:38.829Z,101149.25
2023-09-08T08:25:06.149Z,101148.00
2023-09-08T08:27:32.846Z,101150.25
2023-09-08T08:30:01.874Z,101147.34
2023-09-08T08:32:30.183Z,101146.19
2023-09-08T08:34:57.777Z,101146.53
2023-09-08T08:37:24.634Z,101149.34
2023-09-08T08:39:51.357Z,101146.41
2023-09-08T08:42:18.558Z,101142.53
2023-09-08T08:44:46.728Z,101138.81
2023-09-08T08:47:17.041Z,101142.06
2023-09-08T08:49:49.392Z,101144.66
2023-09-08T08:52:16.352Z,101147.66
2023-09-08T08:54:43.882Z,101144.75
2023-09-08T08:57:12.235Z,101147.06
2023-09-08T08:59:39.087Z,101129.13
2023-09-08T09:02:06.588Z,101132.25
2023-09-08T09:04:34.164Z,101131.38
2023-09-08T09:07:00.972Z,101140.75
2023-09-08T09:09:27.608Z,101131.38
2023-09-08T09:11:54.540Z,101128.44
2023-09-08T09:14:21.273Z,101125.09
2023-09-08T09:16:48.908Z,101128.53
2023-09-08T09:19:28.407Z,101121.59
2023-09-08T09:21:56.430Z,101124.91
2023-09-08T09:24:34.649Z,101126.41
2023-09-08T09:27:02.306Z,101134.31
2023-09-08T09:29:29.561Z,101133.41
2023-09-08T09:32:05.229Z,101133.41
2023-09-08T09:34:31.878Z,101130.53
2023-09-08T09:36:58.551Z,101132.16
2023-09-08T09:39:26.489Z,101128.00
2023-09-08T09:41:57.596Z,101122.38
2023-09-08T09:44:25.229Z,101123.16
2023-09-08T09:46:55.062Z,101122.47
2023-09-08T09:49:21.894Z,101120.91
2023-09-08T09:51:50.432Z,101118.44
2023-09-08T09:54:17.768Z,101125.72
2023-09-08T09:56:46.597Z,101121.97
2023-09-08T09:59:14.694Z,101120.84
2023-09-08T10:01:43.568Z,101118.97
2023-09-08T10:04:11.586Z,101117.53
2023-09-08T10:06:40.230Z,101110.44
2023-09-08T10:09:14.387Z,101113.25
2023-09-08T10:11:49.733Z,101108.91
2023-09-08T10:14:18.813Z,101110.88
2023-09-08T10:16:53.573Z,101108.19
2023-09-08T10:19:22.811Z,101095.53
2023-09-08T10:21:52.128Z,101108.97
2023-09-08T10:24:39.895Z,101103.16
2023-09-08T10:27:11.150Z,101104.28
2023-09-08T10:29:38.720Z,101097.88
2023-09-08T10:32:07.869Z,101096.22
2023-09-08T10:34:36.513Z,101095.81
2023-09-08T10:37:04.367Z,101098.47
2023-09-08T10:39:41.025Z,101098.47
2023-09-08T10:42:20.276Z,101095.78
2023-09-08T10:44:53.142Z,101102.66
2023-09-08T10:47:23.331Z,101092.81
2023-09-08T10:49:55.582Z,101101.03
2023-09-08T10:52:25.814Z,101102.25
2023-09-08T10:54:54.290Z,101100.47
2023-09-08T10:57:25.586Z,101107.38
2023-09-08T10:59:55.154Z,101097.25
2023-09-08T11:02:35.975Z,101109.72
2023-09-08T11:05:05.897Z,101101.78
2023-09-08T11:07:36.085Z,101100.72
2023-09-08T11:10:02.946Z,101099.22
2023-09-08T11:12:29.910Z,101102.25
2023-09-08T11:14:56.649Z,101097.06
2023-09-08T11:17:27.221Z,101106.94
2023-09-08T11:19:53.942Z,101098.94
2023-09-08T11:22:24.974Z,101101.19
2023-09-08T11:24:53.625Z,101088.22
2023-09-08T11:27:22.240Z,101097.72
2023-09-08T11:29:48.940Z,101088.56
2023-09-08T11:32:15.641Z,101084.84
2023-09-08T11:34:42.977Z,101089.25
2023-09-08T11:37:14.219Z,101094.59
2023-09-08T11:39:41.877Z,101093.97
2023-09-08T11:42:09.963Z,101083.34
2023-09-08T11:44:37.388Z,101084.13
2023-09-08T11:47:05.835Z,101078.75
2023-09-08T11:49:39.696Z,101077.56
2023-09-08T11:52:07.156Z,101071.44
2023-09-08T11:54:35.798Z,101066.25
2023-09-08T11:57:05.338Z,101069.59
2023-09-08T11:59:34.028Z,101057.72
2023-09-08T12:02:00.781Z,101054.19
2023-09-08T12:04:28.386Z,101056.66
2023-09-08T12:06:57.071Z,101056.44
2023-09-08T12:09:24.922Z,101055.78
2023-09-08T12:11:52.170Z,101056.00
2023-09-08T12:14:19.075Z,101054.91
2023-09-08T12:16:45.746Z,101051.25
2023-09-08T12:19:38.516Z,101053.84
2023-09-08T12:22:08.467Z,101048.16
2023-09-08T12:24:54.048Z,101057.69
2023-09-08T12:27:21.079Z,101045.72
2023-09-08T12:30:01.936Z,101050.50
2023-09-08T12:32:31.343Z,101047.22
2023-09-08T12:34:59.414Z,101053.56
2023-09-08T12:37:30.429Z,101054.66
2023-09-08T12:39:57.827Z,101051.47
2023-09-08T12:42:30.260Z,101051.47
2023-09-08T12:44:57.667Z,101043.66
2023-09-08T12:47:24.214Z,101041.09
2023-09-08T12:49:50.896Z,101045.72
2023-09-08T12:52:17.537Z,101033.81
2023-09-08T12:54:56.552Z,101036.63
2023-09-08T12:57:25.418Z,101036.31
2023-09-08T12:59:52.923Z,101034.16
2023-09-08T13:02:19.539Z,101021.75
2023-09-08T13:04:49.818Z,101024.06
2023-09-08T13:07:17.814Z,101023.09
2023-09-08T13:10:00.837Z,101022.34
2023-09-08T13:12:38.364Z,101021.41
2023-09-08T13:15:08.691Z,101017.53
2023-09-08T13:17:35.354Z,101022.72
2023-09-08T13:20:03.342Z,101013.47
2023-09-08T13:22:30.133Z,101012.31
2023-09-08T13:24:56.773Z,101012.59
2023-09-08T13:27:23.396Z,101009.50
2023-09-08T13:29:50.037Z,101011.16
2023-09-08T13:32:17.014Z,101009.16
2023-09-08T13:34:44.769Z,101004.19
2023-09-08T13:37:11.548Z,101002.50
2023-09-08T13:39:38.417Z,101004.50
2023-09-08T13:42:05.866Z,100996.22
2023-09-08T13:44:32.566Z,100999.91
2023-09-08T13:46:59.409Z,100987.88
2023-09-08T13:49:27.735Z,100992.19
2023-09-08T13:51:57.121Z,100989.19
2023-09-08T13:54:25.254Z,100984.75
2023-09-08T13:57:20.486Z,100995.81
2023-09-08T14:00:03.666Z,100989.66
2023-09-08T14:02:43.360Z,100990.16
2023-09-08T14:07:46.735Z,100982.81
2023-09-08T14:10:27.177Z,100992.00
2023-09-08T14:12:56.890Z,100993.16
2023-09-08T14:15:23.578Z,100993.50
2023-09-08T14:17:50.555Z,100994.47
2023-09-08T14:20:17.337Z,100988.81
2023-09-08T14:22:44.100Z,100991.22
2023-09-08T14:25:14.893Z,100987.56
2023-09-08T14:27:41.505Z,100986.50
2023-09-08T14:30:08.523Z,100985.03
2023-09-08T14:32:35.105Z,100978.50
2023-09-08T14:35:02.655Z,100984.16
2023-09-08T14:37:29.635Z,100983.69
2023-09-08T14:39:56.241Z,100978.38
2023-09-08T14:42:22.831Z,100971.41
2023-09-08T14:44:52.527Z,100983.41
2023-09-08T14:47:34.808Z,100974.34
2023-09-08T14:50:01.839Z,100977.13
2023-09-08T14:52:28.335Z,100982.19
2023-09-08T14:54:54.945Z,100980.19
2023-09-08T14:57:21.555Z,100978.31
2023-09-08T14:59:48.180Z,100980.66
2023-09-08T15:02:14.996Z,100968.56
2023-09-08T15:04:41.857Z,100973.25
2023-09-08T15:07:09.877Z,100970.66
2023-09-08T15:09:36.943Z,100968.16
2023-09-08T15:12:03.767Z,100963.75
2023-09-08T15:14:30.350Z,100959.91
2023-09-08T15:16:57.001Z,100967.91
2023-09-08T15:19:23.581Z,100964.97
2023-09-08T15:21:50.143Z,100963.09
2023-09-08T15:24:18.768Z,100956.72
2023-09-08T15:26:46.554Z,100953.94
2023-09-08T15:29:16.794Z,100951.53
2023-09-08T15:31:44.122Z,100956.13
2023-09-08T15:34:12.661Z,100951.31
2023-09-08T15:36:39.202Z,100953.03
2023-09-08T15:39:24.579Z,100947.41
2023-09-08T15:42:15.338Z,100950.91
2023-09-08T15:44:50.921Z,100945.13
2023-09-08T15:47:20.181Z,100939.25
2023-09-08T15:49:53.543Z,100946.41
2023-09-08T15:52:21.503Z,100939.63
2023-09-08T15:54:48.170Z,100943.97
2023-09-08T15:57:15.899Z,100941.72
2023-09-08T15:59:42.672Z,100938.97
2023-09-08T16:02:09.387Z,100936.06
2023-09-08T16:04:36.215Z,100937.63
2023-09-08T16:07:05.811Z,100939.41
2023-09-08T16:09:32.409Z,100933.84
2023-09-08T16:11:59.092Z,100941.84
2023-09-08T16:14:25.695Z,100942.91
2023-09-08T16:16:52.840Z,100943.66
2023-09-08T16:19:20.110Z,100941.84
2023-09-08T16:21:46.695Z,100937.50
2023-09-08T16:24:13.334Z,100934.94
2023-09-08T16:26:40.003Z,100930.38
2023-09-08T16:29:06.730Z,100930.09
2023-09-08T16:31:33.477Z,100927.88
2023-09-08T16:34:00.087Z,100938.09
2023-09-08T16:36:26.723Z,100929.91
2023-09-08T16:38:53.291Z,100931.38
2023-09-08T16:41:19.840Z,100931.81
2023-09-08T16:43:46.706Z,100927.81
2023-09-08T16:46:15.175Z,100942.53
2023-09-08T16:48:42.062Z,100942.06
2023-09-08T16:51:09.093Z,100941.88
2023-09-08T16:53:35.905Z,100941.06
2023-09-08T16:56:09.501Z,100934.56
2023-09-08T16:58:37.138Z,100936.47
2023-09-08T17:01:06.665Z,100927.50
2023-09-08T17:03:33.527Z,100935.53
2023-09-08T17:06:00.295Z,100931.34
2023-09-08T17:08:51.749Z,100940.81
2023-09-08T17:11:19.413Z,100931.63
2023-09-08T17:13:45.979Z,100936.38
2023-09-08T17:16:13.324Z,100942.53
2023-09-08T17:18:40.008Z,100934.69
2023-09-08T17:21:15.180Z,100934.88
2023-09-08T17:23:42.151Z,100933.75
2023-09-08T17:26:09.210Z,100933.25
2023-09-08T17:28:36.117Z,100926.28
2023-09-08T17:31:04.890Z,100930.09
2023-09-08T17:33:31.473Z,100939.34
2023-09-08T17:35:58.175Z,100936.34
2023-09-08T17:38:30.127Z,100936.75
2023-09-08T17:40:58.089Z,100934.59
2023-09-08T17:43:25.647Z,100940.22
2023-09-08T17:45:52.411Z,100938.75
2023-09-08T17:48:19.224Z,100939.66
2023-09-08T17:50:45.797Z,100939.22
2023-09-08T17:53:12.380Z,100943.72
2023-09-08T17:55:38.952Z,100944.50
2023-09-08T17:58:05.543Z,100943.75
2023-09-08T18:00:32.165Z,100945.81
2023-09-08T18:02:58.838Z,100947.09
2023-09-08T18:05:26.450Z,100946.38
2023-09-08T18:07:53.027Z,100950.75
2023-09-08T18:10:19.841Z,100946.34
2023-09-08T18:12:46.631Z,100940.38
2023-09-08T18:15:13.271Z,100949.84
2023-09-08T18:17:41.078Z,100952.81
2023-09-08T18:20:08.267Z,100952.59
2023-09-08T18:22:35.120Z,100955.03
2023-09-08T18:25:01.917Z,100958.97
2023-09-08T18:27:30.702Z,100958.59
2023-09-08T18:29:57.480Z,100962.84
2023-09-08T18:32:24.773Z,100963.31
2023-09-08T18:34:53.668Z,100959.31
2023-09-08T18:37:21.476Z,100965.13
2023-09-08T18:39:48.083Z,100967.22
2023-09-08T18:42:14.648Z,100956.28
2023-09-08T18:44:43.486Z,100963.00
2023-09-08T18:47:10.788Z,100973.19
2023-09-08T18:49:37.594Z,100963.28
2023-09-08T18:52:04.605Z,100964.88
2023-09-08T18:54:33.235Z,100966.31
2023-09-08T18:57:00.043Z,100966.59
2023-09-08T18:59:26.985Z,100967.16
2023-09-08T19:01:55.209Z,100967.44
2023-09-08T19:04:22.320Z,100971.91
2023-09-08T19:06:49.182Z,100972.25
2023-09-08T19:09:15.968Z,100967.50
2023-09-08T19:11:42.642Z,100976.09
2023-09-08T19:14:09.401Z,100979.84
2023-09-08T19:16:36.273Z,100970.91
2023-09-08T19:19:02.858Z,100975.38
2023-09-08T19:21:29.530Z,100973.13
2023-09-08T19:23:56.044Z,100975.25
2023-09-08T19:26:22.641Z,100973.63
2023-09-08T19:28:49.185Z,100972.06
2023-09-08T19:31:15.807Z,100973.00
2023-09-08T19:33:42.557Z,100973.94
2023-09-08T19:36:09.149Z,100971.53
2023-09-08T19:38:35.764Z,100964.34
2023-09-08T19:41:05.982Z,100968.22
2023-09-08T19:43:32.735Z,100965.38
2023-09-08T19:46:04.677Z,100958.25
2023-09-08T19:48:35.320Z,100961.91
2023-09-08T19:51:04.241Z,100962.22
2023-09-08T19:53:31.396Z,100966.09
2023-09-08T19:55:58.778Z,100962.19
2023-09-08T19:58:29.339Z,100963.00
2023-09-08T20:01:04.790Z,100951.94
2023-09-08T20:03:31.725Z,100959.97
2023-09-08T20:05:58.576Z,100961.50
2023-09-08T20:08:25.208Z,100967.03
2023-09-08T20:10:53.438Z,100956.88
2023-09-08T20:13:21.148Z,100959.91
2023-09-08T20:15:57.977Z,100964.09
2023-09-08T20:18:24.741Z,100957.13
2023-09-08T20:21:05.676Z,100959.19
2023-09-08T20:23:33.591Z,100960.41
2023-09-08T20:26:00.630Z,100956.06
2023-09-08T20:28:27.293Z,100950.00
2023-09-08T20:31:09.545Z,100950.19
2023-09-08T20:33:41.022Z,100958.53
2023-09-08T20:36:07.622Z,100960.22
2023-09-08T20:38:34.476Z,100957.69
2023-09-08T20:41:01.347Z,100959.44
2023-09-08T20:43:28.006Z,100960.50
2023-09-08T20:45:55.180Z,100959.03
2023-09-08T20:48:22.872Z,100957.81
2023-09-08T20:50:59.333Z,100969.25
2023-09-08T20:53:25.888Z,100966.09
2023-09-08T20:55:52.470Z,100956.78
2023-09-08T20:58:19.095Z,100965.91
2023-09-08T21:00:45.756Z,100965.09
2023-09-08T21:03:12.538Z,100968.56
2023-09-08T21:05:39.376Z,100972.69
2023-09-08T21:08:06.699Z,100976.38
2023-09-08T21:10:33.462Z,100969.38
2023-09-08T21:13:00.022Z,100969.97
2023-09-08T21:15:26.584Z,100972.69
2023-09-08T21:17:53.278Z,100976.03
2023-09-08T21:20:20.403Z,100977.78
2023-09-08T21:22:47.038Z,100966.53
2023-09-08T21:25:13.932Z,100971.44
2023-09-08T21:27:40.615Z,100972.66
2023-09-08T21:30:07.788Z,100968.88
2023-09-08T21:32:34.549Z,100962.16
2023-09-08T21:35:01.319Z,100953.59
2023-09-08T21:37:28.285Z,100964.41
2023-09-08T21:39:54.895Z,100962.88
2023-09-08T21:42:21.483Z,100965.50
2023-09-08T21:44:48.046Z,100965.38
2023-09-08T21:47:15.800Z,100967.31
2023-09-08T21:49:42.470Z,100975.19
2023-09-08T21:52:09.108Z,100970.00
2023-09-08T21:54:35.716Z,100973.72
2023-09-08T21:57:02.296Z,100979.31
2023-09-08T21:59:31.392Z,100961.22
2023-09-08T22:01:58.515Z,100973.88
2023-09-08T22:04:26.373Z,100972.22
2023-09-08T22:06:53.862Z,100970.50
2023-09-08T22:09:20.737Z,100975.34
2023-09-08T22:11:49.873Z,100973.59
2023-09-08T22:14:16.653Z,100973.03
2023-09-08T22:16:43.340Z,100975.50
2023-09-08T22:19:11.517Z,100979.88
2023-09-08T22:21:39.358Z,100978.19
2023-09-08T22:24:06.380Z,100977.50
2023-09-08T22:26:33.122Z,100976.66
2023-09-08T22:28:59.679Z,100975.00
2023-09-08T22:31:26.380Z,100976.91
2023-09-08T22:33:53.184Z,100978.22
2023-09-08T22:36:21.061Z,100973.00
2023-09-08T22:38:48.447Z,100974.09
2023-09-08T22:41:15.098Z,100976.81
2023-09-08T22:43:41.736Z,100978.63
2023-09-08T22:46:08.819Z,100975.00
2023-09-08T22:48:36.241Z,100975.91
2023-09-08T22:51:04.904Z,100976.81
2023-09-08T22:53:31.768Z,100979.41
2023-09-08T22:55:58.517Z,100978.84
2023-09-08T22:58:26.364Z,100978.09
2023-09-08T23:00:53.131Z,100977.25
2023-09-08T23:03:20.151Z,100980.56
2023-09-08T23:05:46.760Z,100977.16
2023-09-08T23:08:13.361Z,100977.22
2023-09-08T23:10:39.956Z,100981.09
2023-09-08T23:13:06.523Z,100973.44
2023-09-08T23:15:34.290Z,100985.34
2023-09-08T23:18:00.996Z,100974.84
2023-09-08T23:20:27.771Z,100980.41
2023-09-08T23:22:54.429Z,100977.88
2023-09-08T23:25:20.964Z,100975.19
2023-09-08T23:27:47.555Z,100977.19
2023-09-08T23:30:16.247Z,100981.59
2023-09-08T23:32:45.597Z,100973.78
2023-09-08T23:35:13.299Z,100979.16
2023-09-08T23:37:40.052Z,100983.06
2023-09-08T23:40:13.565Z,100968.97
2023-09-08T23:42:40.615Z,100970.78
2023-09-08T23:45:07.570Z,100971.78
2023-09-08T23:47:34.495Z,100981.72
2023-09-08T23:50:01.309Z,100970.13
2023-09-08T23:52:28.582Z,100976.41
2023-09-08T23:54:55.320Z,100964.97
2023-09-08T23:57:21.989Z,100973.16
2023-09-08T23:59:48.726Z,100976.72
